sensor_id;sensor_type;location;lat;lon;timestamp;P1;durP1;ratioP1;P2;durP2;ratioP2
14994;SDS011;7593;49.006;8.372;2022-12-05T00:00:09;28.40;;;16.77;;
14994;SDS011;7593;49.006;8.372;2022-12-05T00:02:36;26.17;;;15.83;;
14994;SDS011;7593;49.006;8.372;2022-12-05T00:05:03;27.23;;;16.10;;
14994;SDS011;7593;49.006;8.372;2022-12-05T00:07:32;37.43;;;18.27;;
14994;SDS011;7593;49.006;8.372;2022-12-05T00:09:59;38.83;;;21.43;;
14994;SDS011;7593;49.006;8.372;2022-12-05T00:12:25;44.67;;;20.93;;
14994;SDS011;7593;49.006;8.372;2022-12-05T00:14:52;48.77;;;23.73;;
14994;SDS011;7593;49.006;8.372;2022-12-05T00:17:19;54.43;;;24.97;;
14994;SDS011;7593;49.006;8.372;2022-12-05T00:19:46;54.30;;;24.77;;
14994;SDS011;7593;49.006;8.372;2022-12-05T00:22:12;52.43;;;23.97;;
14994;SDS011;7593;49.006;8.372;2022-12-05T00:24:41;52.67;;;23.97;;
14994;SDS011;7593;49.006;8.372;2022-12-05T00:27:08;57.23;;;24.37;;
14994;SDS011;7593;49.006;8.372;2022-12-05T00:29:35;58.13;;;26.73;;
14994;SDS011;7593;49.006;8.372;2022-12-05T00:32:02;54.30;;;24.97;;
14994;SDS011;7593;49.006;8.372;2022-12-05T00:34:28;59.53;;;26.70;;
14994;SDS011;7593;49.006;8.372;2022-12-05T00:36:55;53.33;;;26.17;;
14994;SDS011;7593;49.006;8.372;2022-12-05T00:39:22;54.43;;;25.83;;
14994;SDS011;7593;49.006;8.372;2022-12-05T00:41:50;49.87;;;25.03;;
14994;SDS011;7593;49.006;8.372;2022-12-05T00:44:17;53.87;;;24.87;;
14994;SDS011;7593;49.006;8.372;2022-12-05T00:46:44;69.20;;;24.17;;
14994;SDS011;7593;49.006;8.372;2022-12-05T00:49:11;105.77;;;25.67;;
14994;SDS011;7593;49.006;8.372;2022-12-05T00:51:38;54.17;;;24.23;;
14994;SDS011;7593;49.006;8.372;2022-12-05T00:54:08;71.00;;;24.57;;
14994;SDS011;7593;49.006;8.372;2022-12-05T00:56:36;64.93;;;25.73;;
14994;SDS011;7593;49.006;8.372;2022-12-05T00:59:04;61.57;;;25.13;;
14994;SDS011;7593;49.006;8.372;2022-12-05T01:01:32;57.30;;;24.77;;
14994;SDS011;7593;49.006;8.372;2022-12-05T01:04:02;74.83;;;25.13;;
14994;SDS011;7593;49.006;8.372;2022-12-05T01:06:30;72.57;;;24.40;;
14994;SDS011;7593;49.006;8.372;2022-12-05T01:08:57;56.47;;;24.10;;
14994;SDS011;7593;49.006;8.372;2022-12-05T01:11:25;60.87;;;25.20;;
14994;SDS011;7593;49.006;8.372;2022-12-05T01:13:52;59.70;;;24.20;;
14994;SDS011;7593;49.006;8.372;2022-12-05T01:16:22;56.97;;;24.27;;
14994;SDS011;7593;49.006;8.372;2022-12-05T01:18:50;61.27;;;24.47;;
14994;SDS011;7593;49.006;8.372;2022-12-05T01:21:18;53.00;;;24.33;;
14994;SDS011;7593;49.006;8.372;2022-12-05T01:23:46;50.50;;;22.23;;
14994;SDS011;7593;49.006;8.372;2022-12-05T01:26:14;62.33;;;22.90;;
14994;SDS011;7593;49.006;8.372;2022-12-05T01:28:42;68.30;;;24.67;;
14994;SDS011;7593;49.006;8.372;2022-12-05T01:31:17;53.60;;;23.60;;
14994;SDS011;7593;49.006;8.372;2022-12-05T01:33:49;76.80;;;23.50;;
14994;SDS011;7593;49.006;8.372;2022-12-05T01:36:16;75.33;;;23.93;;
14994;SDS011;7593;49.006;8.372;2022-12-05T01:38:43;50.80;;;22.67;;
14994;SDS011;7593;49.006;8.372;2022-12-05T01:41:11;65.17;;;22.70;;
14994;SDS011;7593;49.006;8.372;2022-12-05T01:43:53;68.07;;;23.40;;
14994;SDS011;7593;49.006;8.372;2022-12-05T01:46:22;64.63;;;23.87;;
14994;SDS011;7593;49.006;8.372;2022-12-05T01:48:50;47.90;;;21.90;;
14994;SDS011;7593;49.006;8.372;2022-12-05T01:51:18;53.47;;;21.47;;
14994;SDS011;7593;49.006;8.372;2022-12-05T01:53:45;57.60;;;22.13;;
14994;SDS011;7593;49.006;8.372;2022-12-05T01:56:11;61.80;;;21.90;;
14994;SDS011;7593;49.006;8.372;2022-12-05T01:58:39;52.07;;;23.17;;
14994;SDS011;7593;49.006;8.372;2022-12-05T02:01:07;58.27;;;22.23;;
14994;SDS011;7593;49.006;8.372;2022-12-05T02:03:36;68.57;;;22.50;;
14994;SDS011;7593;49.006;8.372;2022-12-05T02:06:03;66.47;;;22.77;;
14994;SDS011;7593;49.006;8.372;2022-12-05T02:08:30;65.27;;;23.33;;
14994;SDS011;7593;49.006;8.372;2022-12-05T02:10:58;60.23;;;22.70;;
14994;SDS011;7593;49.006;8.372;2022-12-05T02:13:32;60.23;;;23.27;;
14994;SDS011;7593;49.006;8.372;2022-12-05T02:16:10;72.93;;;24.27;;
14994;SDS011;7593;49.006;8.372;2022-12-05T02:18:48;86.67;;;24.10;;
14994;SDS011;7593;49.006;8.372;2022-12-05T02:24:26;58.40;;;23.03;;
14994;SDS011;7593;49.006;8.372;2022-12-05T02:27:19;55.70;;;22.70;;
14994;SDS011;7593;49.006;8.372;2022-12-05T02:30:02;51.00;;;23.37;;
14994;SDS011;7593;49.006;8.372;2022-12-05T02:32:37;51.77;;;22.37;;
14994;SDS011;7593;49.006;8.372;2022-12-05T02:35:15;53.90;;;23.73;;
14994;SDS011;7593;49.006;8.372;2022-12-05T02:37:53;49.10;;;21.77;;
14994;SDS011;7593;49.006;8.372;2022-12-05T02:40:29;49.83;;;23.10;;
14994;SDS011;7593;49.006;8.372;2022-12-05T02:43:03;45.07;;;21.93;;
14994;SDS011;7593;49.006;8.372;2022-12-05T02:45:35;51.43;;;22.97;;
14994;SDS011;7593;49.006;8.372;2022-12-05T02:48:03;49.90;;;22.20;;
14994;SDS011;7593;49.006;8.372;2022-12-05T02:50:32;52.37;;;23.83;;
14994;SDS011;7593;49.006;8.372;2022-12-05T02:53:03;49.47;;;23.33;;
14994;SDS011;7593;49.006;8.372;2022-12-05T02:55:33;48.63;;;21.83;;
14994;SDS011;7593;49.006;8.372;2022-12-05T02:58:01;47.50;;;21.23;;
14994;SDS011;7593;49.006;8.372;2022-12-05T03:00:30;44.17;;;21.87;;
14994;SDS011;7593;49.006;8.372;2022-12-05T03:02:58;47.67;;;21.83;;
14994;SDS011;7593;49.006;8.372;2022-12-05T03:05:28;42.10;;;21.20;;
14994;SDS011;7593;49.006;8.372;2022-12-05T03:08:03;47.30;;;21.97;;
14994;SDS011;7593;49.006;8.372;2022-12-05T03:10:31;45.33;;;22.27;;
14994;SDS011;7593;49.006;8.372;2022-12-05T03:13:01;44.93;;;21.87;;
14994;SDS011;7593;49.006;8.372;2022-12-05T03:15:32;40.53;;;20.80;;
14994;SDS011;7593;49.006;8.372;2022-12-05T03:18:04;42.13;;;21.23;;
14994;SDS011;7593;49.006;8.372;2022-12-05T03:20:37;35.70;;;19.23;;
14994;SDS011;7593;49.006;8.372;2022-12-05T03:23:11;39.13;;;20.73;;
14994;SDS011;7593;49.006;8.372;2022-12-05T03:25:43;35.50;;;19.40;;
14994;SDS011;7593;49.006;8.372;2022-12-05T03:28:17;35.17;;;19.67;;
14994;SDS011;7593;49.006;8.372;2022-12-05T03:30:48;34.70;;;19.10;;
14994;SDS011;7593;49.006;8.372;2022-12-05T03:33:20;33.63;;;18.33;;
14994;SDS011;7593;49.006;8.372;2022-12-05T03:35:53;31.73;;;18.53;;
14994;SDS011;7593;49.006;8.372;2022-12-05T03:38:28;31.93;;;18.00;;
14994;SDS011;7593;49.006;8.372;2022-12-05T03:41:00;30.00;;;18.43;;
14994;SDS011;7593;49.006;8.372;2022-12-05T03:43:33;29.93;;;17.90;;
14994;SDS011;7593;49.006;8.372;2022-12-05T03:46:05;33.00;;;19.50;;
14994;SDS011;7593;49.006;8.372;2022-12-05T03:48:39;32.20;;;18.97;;
14994;SDS011;7593;49.006;8.372;2022-12-05T03:51:17;29.13;;;17.60;;
14994;SDS011;7593;49.006;8.372;2022-12-05T03:53:50;30.33;;;17.67;;
14994;SDS011;7593;49.006;8.372;2022-12-05T03:56:19;31.47;;;18.50;;
14994;SDS011;7593;49.006;8.372;2022-12-05T03:58:50;37.03;;;22.33;;
14994;SDS011;7593;49.006;8.372;2022-12-05T04:01:20;33.17;;;19.37;;
14994;SDS011;7593;49.006;8.372;2022-12-05T04:03:52;29.70;;;18.00;;
14994;SDS011;7593;49.006;8.372;2022-12-05T04:06:23;27.37;;;17.50;;
14994;SDS011;7593;49.006;8.372;2022-12-05T04:08:55;49.37;;;30.43;;
14994;SDS011;7593;49.006;8.372;2022-12-05T04:11:26;35.60;;;22.27;;
14994;SDS011;7593;49.006;8.372;2022-12-05T04:13:58;39.83;;;25.10;;
14994;SDS011;7593;49.006;8.372;2022-12-05T04:16:30;28.50;;;17.90;;
14994;SDS011;7593;49.006;8.372;2022-12-05T04:19:23;25.07;;;17.17;;
14994;SDS011;7593;49.006;8.372;2022-12-05T04:22:13;25.27;;;16.77;;
14994;SDS011;7593;49.006;8.372;2022-12-05T04:24:39;25.93;;;16.93;;
14994;SDS011;7593;49.006;8.372;2022-12-05T04:27:26;26.93;;;17.87;;
14994;SDS011;7593;49.006;8.372;2022-12-05T04:30:00;27.70;;;18.50;;
14994;SDS011;7593;49.006;8.372;2022-12-05T04:32:31;39.00;;;24.67;;
14994;SDS011;7593;49.006;8.372;2022-12-05T04:35:05;36.67;;;22.73;;
14994;SDS011;7593;49.006;8.372;2022-12-05T04:37:37;24.67;;;17.43;;
14994;SDS011;7593;49.006;8.372;2022-12-05T04:40:09;32.37;;;20.93;;
14994;SDS011;7593;49.006;8.372;2022-12-05T04:42:40;25.93;;;15.77;;
14994;SDS011;7593;49.006;8.372;2022-12-05T04:45:09;23.30;;;16.40;;
14994;SDS011;7593;49.006;8.372;2022-12-05T04:47:39;26.33;;;16.23;;
14994;SDS011;7593;49.006;8.372;2022-12-05T04:50:09;22.67;;;15.93;;
14994;SDS011;7593;49.006;8.372;2022-12-05T04:52:38;23.23;;;16.17;;
14994;SDS011;7593;49.006;8.372;2022-12-05T04:55:08;22.63;;;16.27;;
14994;SDS011;7593;49.006;8.372;2022-12-05T04:57:39;26.63;;;17.93;;
14994;SDS011;7593;49.006;8.372;2022-12-05T05:00:11;23.83;;;16.70;;
14994;SDS011;7593;49.006;8.372;2022-12-05T05:02:39;23.93;;;15.77;;
14994;SDS011;7593;49.006;8.372;2022-12-05T05:05:11;24.80;;;16.33;;
14994;SDS011;7593;49.006;8.372;2022-12-05T05:07:42;24.33;;;16.83;;
14994;SDS011;7593;49.006;8.372;2022-12-05T05:10:10;24.90;;;17.40;;
14994;SDS011;7593;49.006;8.372;2022-12-05T05:12:40;22.80;;;15.67;;
14994;SDS011;7593;49.006;8.372;2022-12-05T05:15:07;23.90;;;15.87;;
14994;SDS011;7593;49.006;8.372;2022-12-05T05:17:34;23.97;;;16.23;;
14994;SDS011;7593;49.006;8.372;2022-12-05T05:20:01;33.07;;;21.40;;
14994;SDS011;7593;49.006;8.372;2022-12-05T05:22:45;22.93;;;15.50;;
14994;SDS011;7593;49.006;8.372;2022-12-05T05:25:13;24.47;;;15.77;;
14994;SDS011;7593;49.006;8.372;2022-12-05T05:27:39;25.07;;;16.70;;
14994;SDS011;7593;49.006;8.372;2022-12-05T05:30:07;24.17;;;17.53;;
14994;SDS011;7593;49.006;8.372;2022-12-05T05:32:34;23.20;;;16.50;;
14994;SDS011;7593;49.006;8.372;2022-12-05T05:35:01;23.53;;;16.47;;
14994;SDS011;7593;49.006;8.372;2022-12-05T05:37:27;21.67;;;15.60;;
14994;SDS011;7593;49.006;8.372;2022-12-05T05:39:56;20.90;;;15.13;;
14994;SDS011;7593;49.006;8.372;2022-12-05T05:42:22;21.90;;;16.03;;
14994;SDS011;7593;49.006;8.372;2022-12-05T05:44:49;20.40;;;15.00;;
14994;SDS011;7593;49.006;8.372;2022-12-05T05:47:16;21.90;;;15.00;;
14994;SDS011;7593;49.006;8.372;2022-12-05T05:49:42;22.90;;;15.83;;
14994;SDS011;7593;49.006;8.372;2022-12-05T05:52:09;22.50;;;15.60;;
14994;SDS011;7593;49.006;8.372;2022-12-05T05:54:36;19.50;;;14.70;;
14994;SDS011;7593;49.006;8.372;2022-12-05T05:57:04;21.50;;;14.90;;
14994;SDS011;7593;49.006;8.372;2022-12-05T05:59:31;20.93;;;15.50;;
14994;SDS011;7593;49.006;8.372;2022-12-05T06:01:58;21.67;;;15.17;;
14994;SDS011;7593;49.006;8.372;2022-12-05T06:04:25;23.47;;;15.27;;
14994;SDS011;7593;49.006;8.372;2022-12-05T06:06:52;31.23;;;21.60;;
14994;SDS011;7593;49.006;8.372;2022-12-05T06:09:18;25.93;;;17.13;;
14994;SDS011;7593;49.006;8.372;2022-12-05T06:11:45;21.27;;;15.83;;
14994;SDS011;7593;49.006;8.372;2022-12-05T06:14:13;25.13;;;16.53;;
14994;SDS011;7593;49.006;8.372;2022-12-05T06:16:40;27.73;;;19.70;;
14994;SDS011;7593;49.006;8.372;2022-12-05T06:19:06;24.67;;;17.07;;
14994;SDS011;7593;49.006;8.372;2022-12-05T06:21:33;21.57;;;15.80;;
14994;SDS011;7593;49.006;8.372;2022-12-05T06:24:00;20.97;;;16.13;;
14994;SDS011;7593;49.006;8.372;2022-12-05T06:26:27;24.83;;;17.03;;
14994;SDS011;7593;49.006;8.372;2022-12-05T06:28:53;22.83;;;16.37;;
14994;SDS011;7593;49.006;8.372;2022-12-05T06:31:22;26.50;;;16.83;;
14994;SDS011;7593;49.006;8.372;2022-12-05T06:33:51;22.17;;;15.80;;
14994;SDS011;7593;49.006;8.372;2022-12-05T06:36:18;20.23;;;15.73;;
14994;SDS011;7593;49.006;8.372;2022-12-05T06:38:47;20.87;;;15.83;;
14994;SDS011;7593;49.006;8.372;2022-12-05T06:41:14;21.43;;;14.97;;
14994;SDS011;7593;49.006;8.372;2022-12-05T06:43:43;22.53;;;16.00;;
14994;SDS011;7593;49.006;8.372;2022-12-05T06:46:10;22.80;;;16.10;;
14994;SDS011;7593;49.006;8.372;2022-12-05T06:48:40;23.03;;;16.17;;
14994;SDS011;7593;49.006;8.372;2022-12-05T06:51:08;26.80;;;16.33;;
14994;SDS011;7593;49.006;8.372;2022-12-05T06:53:35;21.33;;;15.17;;
14994;SDS011;7593;49.006;8.372;2022-12-05T06:56:03;21.27;;;15.10;;
14994;SDS011;7593;49.006;8.372;2022-12-05T06:58:32;20.63;;;15.00;;
14994;SDS011;7593;49.006;8.372;2022-12-05T07:00:59;19.67;;;14.13;;
14994;SDS011;7593;49.006;8.372;2022-12-05T07:03:44;21.23;;;15.17;;
14994;SDS011;7593;49.006;8.372;2022-12-05T07:06:13;22.23;;;15.77;;
14994;SDS011;7593;49.006;8.372;2022-12-05T07:08:41;21.10;;;15.67;;
14994;SDS011;7593;49.006;8.372;2022-12-05T07:11:08;19.97;;;15.03;;
14994;SDS011;7593;49.006;8.372;2022-12-05T07:13:34;21.60;;;15.97;;
14994;SDS011;7593;49.006;8.372;2022-12-05T07:16:01;22.63;;;15.53;;
14994;SDS011;7593;49.006;8.372;2022-12-05T07:18:31;23.13;;;15.60;;
14994;SDS011;7593;49.006;8.372;2022-12-05T07:20:59;23.87;;;16.17;;
14994;SDS011;7593;49.006;8.372;2022-12-05T07:23:27;21.07;;;15.10;;
14994;SDS011;7593;49.006;8.372;2022-12-05T07:25:54;20.77;;;15.70;;
14994;SDS011;7593;49.006;8.372;2022-12-05T07:28:22;22.23;;;15.50;;
14994;SDS011;7593;49.006;8.372;2022-12-05T07:30:57;21.87;;;15.93;;
14994;SDS011;7593;49.006;8.372;2022-12-05T07:33:25;20.57;;;14.50;;
14994;SDS011;7593;49.006;8.372;2022-12-05T07:35:53;20.70;;;15.73;;
14994;SDS011;7593;49.006;8.372;2022-12-05T07:38:25;20.70;;;14.60;;
14994;SDS011;7593;49.006;8.372;2022-12-05T07:40:53;22.87;;;16.00;;
14994;SDS011;7593;49.006;8.372;2022-12-05T07:43:19;26.00;;;16.87;;
14994;SDS011;7593;49.006;8.372;2022-12-05T07:45:46;24.00;;;16.30;;
14994;SDS011;7593;49.006;8.372;2022-12-05T07:48:13;22.43;;;16.30;;
14994;SDS011;7593;49.006;8.372;2022-12-05T07:50:40;20.50;;;14.60;;
14994;SDS011;7593;49.006;8.372;2022-12-05T07:53:09;22.10;;;15.03;;
14994;SDS011;7593;49.006;8.372;2022-12-05T07:55:36;21.77;;;13.97;;
14994;SDS011;7593;49.006;8.372;2022-12-05T07:58:03;20.23;;;14.47;;
14994;SDS011;7593;49.006;8.372;2022-12-05T08:00:30;18.30;;;13.83;;
14994;SDS011;7593;49.006;8.372;2022-12-05T08:02:57;21.50;;;14.23;;
14994;SDS011;7593;49.006;8.372;2022-12-05T08:05:23;18.77;;;14.10;;
14994;SDS011;7593;49.006;8.372;2022-12-05T08:07:50;19.23;;;14.07;;
14994;SDS011;7593;49.006;8.372;2022-12-05T08:10:18;19.22;;;14.20;;
14994;SDS011;7593;49.006;8.372;2022-12-05T08:12:45;19.67;;;13.60;;
14994;SDS011;7593;49.006;8.372;2022-12-05T08:15:12;20.37;;;14.20;;
14994;SDS011;7593;49.006;8.372;2022-12-05T08:17:38;18.80;;;13.87;;
14994;SDS011;7593;49.006;8.372;2022-12-05T08:20:06;18.67;;;13.90;;
14994;SDS011;7593;49.006;8.372;2022-12-05T08:22:33;20.37;;;14.73;;
14994;SDS011;7593;49.006;8.372;2022-12-05T08:25:00;20.47;;;14.67;;
14994;SDS011;7593;49.006;8.372;2022-12-05T08:27:28;20.30;;;14.87;;
14994;SDS011;7593;49.006;8.372;2022-12-05T08:29:55;22.47;;;15.53;;
14994;SDS011;7593;49.006;8.372;2022-12-05T08:32:21;22.57;;;16.00;;
14994;SDS011;7593;49.006;8.372;2022-12-05T08:34:48;20.53;;;14.60;;
14994;SDS011;7593;49.006;8.372;2022-12-05T08:37:15;19.37;;;14.77;;
14994;SDS011;7593;49.006;8.372;2022-12-05T08:39:41;22.33;;;15.23;;
14994;SDS011;7593;49.006;8.372;2022-12-05T08:42:08;19.77;;;14.63;;
14994;SDS011;7593;49.006;8.372;2022-12-05T08:44:37;21.43;;;15.23;;
14994;SDS011;7593;49.006;8.372;2022-12-05T08:47:03;22.13;;;15.07;;
14994;SDS011;7593;49.006;8.372;2022-12-05T08:49:30;22.00;;;13.90;;
14994;SDS011;7593;49.006;8.372;2022-12-05T08:51:57;19.70;;;14.13;;
14994;SDS011;7593;49.006;8.372;2022-12-05T08:54:24;21.37;;;14.97;;
14994;SDS011;7593;49.006;8.372;2022-12-05T08:56:50;19.50;;;14.50;;
14994;SDS011;7593;49.006;8.372;2022-12-05T08:59:17;19.93;;;15.00;;
14994;SDS011;7593;49.006;8.372;2022-12-05T09:01:47;22.07;;;14.90;;
14994;SDS011;7593;49.006;8.372;2022-12-05T09:04:15;19.53;;;14.70;;
14994;SDS011;7593;49.006;8.372;2022-12-05T09:06:42;20.43;;;14.47;;
14994;SDS011;7593;49.006;8.372;2022-12-05T09:09:09;18.57;;;14.17;;
14994;SDS011;7593;49.006;8.372;2022-12-05T09:11:38;18.43;;;14.10;;
14994;SDS011;7593;49.006;8.372;2022-12-05T09:14:10;19.63;;;14.37;;
14994;SDS011;7593;49.006;8.372;2022-12-05T09:16:37;21.17;;;14.87;;
14994;SDS011;7593;49.006;8.372;2022-12-05T09:19:08;20.13;;;15.40;;
14994;SDS011;7593;49.006;8.372;2022-12-05T09:21:37;21.27;;;14.77;;
14994;SDS011;7593;49.006;8.372;2022-12-05T09:24:04;20.83;;;15.03;;
14994;SDS011;7593;49.006;8.372;2022-12-05T09:26:31;19.40;;;14.60;;
14994;SDS011;7593;49.006;8.372;2022-12-05T09:28:58;21.27;;;14.77;;
14994;SDS011;7593;49.006;8.372;2022-12-05T09:31:26;20.07;;;15.20;;
14994;SDS011;7593;49.006;8.372;2022-12-05T09:33:54;20.43;;;15.03;;
14994;SDS011;7593;49.006;8.372;2022-12-05T09:36:23;19.90;;;15.03;;
14994;SDS011;7593;49.006;8.372;2022-12-05T09:38:51;20.03;;;14.37;;
14994;SDS011;7593;49.006;8.372;2022-12-05T09:41:26;21.60;;;15.47;;
14994;SDS011;7593;49.006;8.372;2022-12-05T09:44:40;29.93;;;15.93;;
14994;SDS011;7593;49.006;8.372;2022-12-05T09:47:27;20.17;;;14.73;;
14994;SDS011;7593;49.006;8.372;2022-12-05T09:50:00;23.30;;;15.93;;
14994;SDS011;7593;49.006;8.372;2022-12-05T09:52:40;20.37;;;15.07;;
14994;SDS011;7593;49.006;8.372;2022-12-05T09:55:10;22.17;;;15.23;;
14994;SDS011;7593;49.006;8.372;2022-12-05T09:57:39;21.90;;;15.40;;
14994;SDS011;7593;49.006;8.372;2022-12-05T10:00:10;22.53;;;16.17;;
14994;SDS011;7593;49.006;8.372;2022-12-05T10:02:40;21.83;;;15.67;;
14994;SDS011;7593;49.006;8.372;2022-12-05T10:05:16;22.17;;;15.00;;
14994;SDS011;7593;49.006;8.372;2022-12-05T10:07:50;24.23;;;16.23;;
14994;SDS011;7593;49.006;8.372;2022-12-05T10:10:27;20.93;;;14.93;;
14994;SDS011;7593;49.006;8.372;2022-12-05T10:13:02;21.73;;;15.57;;
14994;SDS011;7593;49.006;8.372;2022-12-05T10:15:41;22.47;;;15.17;;
14994;SDS011;7593;49.006;8.372;2022-12-05T10:18:10;20.83;;;15.40;;
14994;SDS011;7593;49.006;8.372;2022-12-05T10:20:50;21.67;;;15.60;;
14994;SDS011;7593;49.006;8.372;2022-12-05T10:23:23;18.80;;;14.47;;
14994;SDS011;7593;49.006;8.372;2022-12-05T10:25:54;21.40;;;15.50;;
14994;SDS011;7593;49.006;8.372;2022-12-05T10:28:26;20.93;;;15.00;;
14994;SDS011;7593;49.006;8.372;2022-12-05T10:30:57;20.90;;;15.20;;
14994;SDS011;7593;49.006;8.372;2022-12-05T10:33:27;21.10;;;14.37;;
14994;SDS011;7593;49.006;8.372;2022-12-05T10:36:00;21.00;;;14.30;;
14994;SDS011;7593;49.006;8.372;2022-12-05T10:38:36;23.67;;;15.20;;
14994;SDS011;7593;49.006;8.372;2022-12-05T10:41:04;21.03;;;14.87;;
14994;SDS011;7593;49.006;8.372;2022-12-05T10:43:33;19.20;;;14.63;;
14994;SDS011;7593;49.006;8.372;2022-12-05T10:46:02;19.93;;;14.33;;
14994;SDS011;7593;49.006;8.372;2022-12-05T10:48:30;18.47;;;14.43;;
14994;SDS011;7593;49.006;8.372;2022-12-05T10:51:00;19.57;;;14.10;;
14994;SDS011;7593;49.006;8.372;2022-12-05T10:53:28;18.37;;;14.10;;
14994;SDS011;7593;49.006;8.372;2022-12-05T10:56:10;19.80;;;14.33;;
14994;SDS011;7593;49.006;8.372;2022-12-05T10:59:01;18.70;;;13.87;;
14994;SDS011;7593;49.006;8.372;2022-12-05T11:01:28;17.70;;;13.33;;
14994;SDS011;7593;49.006;8.372;2022-12-05T11:03:55;18.70;;;14.00;;
14994;SDS011;7593;49.006;8.372;2022-12-05T11:06:28;19.03;;;14.03;;
14994;SDS011;7593;49.006;8.372;2022-12-05T11:08:56;18.83;;;13.27;;
14994;SDS011;7593;49.006;8.372;2022-12-05T11:11:26;18.13;;;13.70;;
14994;SDS011;7593;49.006;8.372;2022-12-05T11:13:55;19.73;;;14.27;;
14994;SDS011;7593;49.006;8.372;2022-12-05T11:16:24;18.50;;;13.70;;
14994;SDS011;7593;49.006;8.372;2022-12-05T11:18:52;18.57;;;14.67;;
14994;SDS011;7593;49.006;8.372;2022-12-05T11:21:18;20.30;;;15.17;;
14994;SDS011;7593;49.006;8.372;2022-12-05T11:23:45;19.07;;;14.67;;
14994;SDS011;7593;49.006;8.372;2022-12-05T11:26:15;19.77;;;14.80;;
14994;SDS011;7593;49.006;8.372;2022-12-05T11:28:46;19.47;;;14.27;;
14994;SDS011;7593;49.006;8.372;2022-12-05T11:31:20;17.38;;;13.10;;
14994;SDS011;7593;49.006;8.372;2022-12-05T11:33:59;19.20;;;13.43;;
14994;SDS011;7593;49.006;8.372;2022-12-05T11:36:38;17.33;;;13.00;;
14994;SDS011;7593;49.006;8.372;2022-12-05T11:39:08;17.33;;;12.90;;
14994;SDS011;7593;49.006;8.372;2022-12-05T11:41:40;16.95;;;13.25;;
14994;SDS011;7593;49.006;8.372;2022-12-05T11:44:29;16.23;;;12.82;;
14994;SDS011;7593;49.006;8.372;2022-12-05T11:47:12;15.00;;;12.30;;
14994;SDS011;7593;49.006;8.372;2022-12-05T11:49:57;17.10;;;12.60;;
14994;SDS011;7593;49.006;8.372;2022-12-05T11:52:42;16.40;;;12.30;;
14994;SDS011;7593;49.006;8.372;2022-12-05T11:55:23;14.55;;;12.02;;
14994;SDS011;7593;49.006;8.372;2022-12-05T11:58:03;15.18;;;11.93;;
14994;SDS011;7593;49.006;8.372;2022-12-05T12:00:48;16.33;;;12.32;;
14994;SDS011;7593;49.006;8.372;2022-12-05T12:03:33;14.98;;;11.27;;
14994;SDS011;7593;49.006;8.372;2022-12-05T12:06:19;13.63;;;10.75;;
14994;SDS011;7593;49.006;8.372;2022-12-05T12:08:55;12.68;;;10.15;;
14994;SDS011;7593;49.006;8.372;2022-12-05T12:11:36;12.57;;;10.45;;
14994;SDS011;7593;49.006;8.372;2022-12-05T12:14:11;11.98;;;9.52;;
14994;SDS011;7593;49.006;8.372;2022-12-05T12:16:47;10.65;;;9.27;;
14994;SDS011;7593;49.006;8.372;2022-12-05T12:19:28;13.38;;;10.13;;
14994;SDS011;7593;49.006;8.372;2022-12-05T12:22:14;15.37;;;10.37;;
14994;SDS011;7593;49.006;8.372;2022-12-05T12:24:57;12.02;;;9.98;;
14994;SDS011;7593;49.006;8.372;2022-12-05T12:27:40;20.33;;;14.70;;
14994;SDS011;7593;49.006;8.372;2022-12-05T12:30:16;18.92;;;15.43;;
14994;SDS011;7593;49.006;8.372;2022-12-05T12:32:50;13.75;;;10.65;;
14994;SDS011;7593;49.006;8.372;2022-12-05T12:35:29;13.70;;;11.00;;
14994;SDS011;7593;49.006;8.372;2022-12-05T12:38:00;14.60;;;11.47;;
14994;SDS011;7593;49.006;8.372;2022-12-05T12:40:37;14.38;;;11.32;;
14994;SDS011;7593;49.006;8.372;2022-12-05T12:43:13;15.85;;;11.95;;
14994;SDS011;7593;49.006;8.372;2022-12-05T12:49:01;14.17;;;11.47;;
14994;SDS011;7593;49.006;8.372;2022-12-05T12:51:40;14.03;;;9.93;;
14994;SDS011;7593;49.006;8.372;2022-12-05T12:54:18;12.47;;;9.87;;
14994;SDS011;7593;49.006;8.372;2022-12-05T12:57:03;38.42;;;23.73;;
14994;SDS011;7593;49.006;8.372;2022-12-05T12:59:39;11.43;;;8.93;;
14994;SDS011;7593;49.006;8.372;2022-12-05T13:02:18;9.97;;;8.10;;
14994;SDS011;7593;49.006;8.372;2022-12-05T13:04:53;8.98;;;7.70;;
14994;SDS011;7593;49.006;8.372;2022-12-05T13:07:25;18.00;;;13.15;;
14994;SDS011;7593;49.006;8.372;2022-12-05T13:09:59;38.97;;;23.25;;
14994;SDS011;7593;49.006;8.372;2022-12-05T13:12:31;12.23;;;9.20;;
14994;SDS011;7593;49.006;8.372;2022-12-05T13:15:04;14.05;;;10.10;;
14994;SDS011;7593;49.006;8.372;2022-12-05T13:17:35;13.52;;;9.77;;
14994;SDS011;7593;49.006;8.372;2022-12-05T13:20:09;27.98;;;18.15;;
14994;SDS011;7593;49.006;8.372;2022-12-05T13:22:41;9.85;;;8.38;;
14994;SDS011;7593;49.006;8.372;2022-12-05T13:25:10;18.77;;;10.18;;
14994;SDS011;7593;49.006;8.372;2022-12-05T13:27:39;14.07;;;10.57;;
14994;SDS011;7593;49.006;8.372;2022-12-05T13:30:20;15.43;;;10.77;;
14994;SDS011;7593;49.006;8.372;2022-12-05T13:32:47;23.52;;;14.30;;
14994;SDS011;7593;49.006;8.372;2022-12-05T13:35:26;9.02;;;7.57;;
14994;SDS011;7593;49.006;8.372;2022-12-05T13:38:18;16.00;;;10.85;;
14994;SDS011;7593;49.006;8.372;2022-12-05T13:41:04;26.33;;;16.92;;
14994;SDS011;7593;49.006;8.372;2022-12-05T13:43:49;15.80;;;11.13;;
14994;SDS011;7593;49.006;8.372;2022-12-05T13:46:21;15.77;;;11.02;;
14994;SDS011;7593;49.006;8.372;2022-12-05T13:48:57;10.83;;;8.87;;
14994;SDS011;7593;49.006;8.372;2022-12-05T13:51:30;27.03;;;17.23;;
14994;SDS011;7593;49.006;8.372;2022-12-05T13:53:59;15.53;;;11.57;;
14994;SDS011;7593;49.006;8.372;2022-12-05T13:56:48;32.50;;;20.53;;
14994;SDS011;7593;49.006;8.372;2022-12-05T14:11:13;3.90;;;2.75;;
14994;SDS011;7593;49.006;8.372;2022-12-05T14:13:42;3.58;;;2.72;;
14994;SDS011;7593;49.006;8.372;2022-12-05T14:22:15;4.27;;;2.73;;
14994;SDS011;7593;49.006;8.372;2022-12-05T14:25:09;29.40;;;22.17;;
14994;SDS011;7593;49.006;8.372;2022-12-05T14:27:48;10.33;;;6.90;;
14994;SDS011;7593;49.006;8.372;2022-12-05T14:30:21;4.57;;;3.00;;
14994;SDS011;7593;49.006;8.372;2022-12-05T14:32:54;2.53;;;2.20;;
14994;SDS011;7593;49.006;8.372;2022-12-05T14:35:27;3.97;;;2.23;;
14994;SDS011;7593;49.006;8.372;2022-12-05T14:37:57;2.37;;;2.17;;
14994;SDS011;7593;49.006;8.372;2022-12-05T14:40:28;2.50;;;2.30;;
14994;SDS011;7593;49.006;8.372;2022-12-05T14:42:59;2.87;;;2.27;;
14994;SDS011;7593;49.006;8.372;2022-12-05T14:45:29;2.50;;;2.00;;
14994;SDS011;7593;49.006;8.372;2022-12-05T14:48:00;3.60;;;2.70;;
14994;SDS011;7593;49.006;8.372;2022-12-05T14:50:33;2.47;;;2.28;;
14994;SDS011;7593;49.006;8.372;2022-12-05T14:53:13;5.10;;;2.70;;
14994;SDS011;7593;49.006;8.372;2022-12-05T14:55:56;3.40;;;3.10;;
14994;SDS011;7593;49.006;8.372;2022-12-05T14:58:33;12.67;;;3.80;;
14994;SDS011;7593;49.006;8.372;2022-12-05T15:01:05;9.45;;;8.55;;
14994;SDS011;7593;49.006;8.372;2022-12-05T15:03:38;7.70;;;5.30;;
14994;SDS011;7593;49.006;8.372;2022-12-05T15:06:09;4.33;;;3.30;;
14994;SDS011;7593;49.006;8.372;2022-12-05T15:08:42;4.97;;;4.33;;
14994;SDS011;7593;49.006;8.372;2022-12-05T15:11:12;5.37;;;4.43;;
14994;SDS011;7593;49.006;8.372;2022-12-05T15:13:53;6.28;;;4.55;;
14994;SDS011;7593;49.006;8.372;2022-12-05T15:16:23;7.97;;;5.83;;
14994;SDS011;7593;49.006;8.372;2022-12-05T15:18:54;3.10;;;2.80;;
14994;SDS011;7593;49.006;8.372;2022-12-05T15:21:25;11.10;;;3.47;;
14994;SDS011;7593;49.006;8.372;2022-12-05T15:23:58;6.93;;;4.40;;